Time,TemperatureF,DewpointF,PressureIn,WindDirection,WindDirectionDegrees,WindSpeedMPH,WindSpeedGustMPH,Humidity,HourlyPrecipIn,Conditions,Clouds,dailyrainin,SoftwareType,DateUTC
2013-09-11 00:01:00,72.9,71.4,30.08,WSW,255,0.0,0.0,95,0.00,,,0.00,meteohub,2013-09-11 04:01:00,
2013-09-11 00:03:00,72.9,71.4,30.08,WSW,255,0.0,0.0,95,0.00,,,0.00,meteohub,2013-09-11 04:03:00,
2013-09-11 00:05:00,72.9,71.4,30.08,WSW,256,0.0,0.0,95,0.00,,,0.00,meteohub,2013-09-11 04:05:00,
2013-09-11 00:10:00,72.9,71.4,30.08,WSW,255,0.0,0.0,95,0.00,,,0.00,meteohub,2013-09-11 04:10:00,
2013-09-11 00:15:00,72.7,71.2,30.08,WSW,256,0.0,0.0,95,0.00,,,0.00,meteohub,2013-09-11 04:15:00,
2013-09-11 00:20:00,72.7,71.2,30.08,WSW,256,0.0,0.0,95,0.00,,,0.00,meteohub,2013-09-11 04:20:00,
2013-09-11 00:25:00,72.7,71.2,30.08,WSW,256,0.0,0.0,95,0.00,,,0.00,meteohub,2013-09-11 04:25:00,
2013-09-11 00:30:00,72.7,71.2,30.08,WSW,255,0.0,0.0,95,0.00,,,0.00,meteohub,2013-09-11 04:30:00,
2013-09-11 00:35:00,72.7,71.2,30.08,WSW,256,0.0,0.0,95,0.00,,,0.00,meteohub,2013-09-11 04:35:00,
2013-09-11 00:40:00,72.7,71.2,30.08,WSW,255,0.0,0.0,95,0.00,,,0.00,meteohub,2013-09-11 04:40:00,
2013-09-11 00:45:00,72.5,71.1,30.08,WSW,255,0.0,0.0,95,0.00,,,0.00,meteohub,2013-09-11 04:45:00,
2013-09-11 00:50:00,72.5,71.1,30.08,WSW,255,0.0,0.0,95,0.00,,,0.00,meteohub,2013-09-11 04:50:00,
2013-09-11 00:55:00,72.3,70.9,30.08,WSW,255,0.0,0.0,95,0.00,,,0.00,meteohub,2013-09-11 04:55:00,
2013-09-11 01:00:00,72.3,70.9,30.08,WSW,256,0.0,0.0,95,0.00,,,0.00,meteohub,2013-09-11 05:00:00,
2013-09-11 01:06:00,72.3,71.1,30.08,WSW,256,0.0,0.0,96,0.00,,,0.00,meteohub,2013-09-11 05:06:00,
2013-09-11 01:11:00,72.5,71.2,30.08,WSW,255,0.0,0.0,96,0.00,,,0.00,meteohub,2013-09-11 05:11:00,
2013-09-11 01:16:00,72.7,71.4,30.08,WSW,256,0.0,0.0,96,0.00,,,0.00,meteohub,2013-09-11 05:16:00,
2013-09-11 01:21:00,72.7,71.4,30.08,WSW,256,0.0,0.0,96,0.00,,,0.00,meteohub,2013-09-11 05:21:00,
2013-09-11 01:26:00,73.0,71.8,30.08,WSW,255,0.0,0.0,96,0.00,,,0.00,meteohub,2013-09-11 05:26:00,
2013-09-11 01:31:00,73.2,72.3,30.07,WSW,250,0.0,0.0,97,0.00,,,0.00,meteohub,2013-09-11 05:31:00,
2013-09-11 01:36:00,73.6,72.3,30.07,WSW,250,0.0,0.0,96,0.00,,,0.00,meteohub,2013-09-11 05:36:00,
2013-09-11 01:41:00,73.8,72.9,30.07,WSW,250,0.0,0.0,97,0.00,,,0.00,meteohub,2013-09-11 05:41:00,
2013-09-11 01:46:00,74.1,73.2,30.07,West,259,0.0,0.0,97,0.00,,,0.00,meteohub,2013-09-11 05:46:00,
2013-09-11 01:51:00,74.1,72.9,30.06,SW,232,0.0,0.0,96,0.00,,,0.00,meteohub,2013-09-11 05:51:00,
2013-09-11 01:56:00,74.7,73.4,30.06,SW,229,0.0,0.0,96,0.00,,,0.00,meteohub,2013-09-11 05:56:00,
2013-09-11 02:01:00,74.7,73.4,30.06,SW,229,0.0,3.0,96,0.00,,,0.00,meteohub,2013-09-11 06:01:00,
2013-09-11 02:06:00,74.8,73.6,30.06,WSW,257,0.0,3.0,96,0.00,,,0.00,meteohub,2013-09-11 06:06:00,
2013-09-11 02:11:00,74.8,73.2,30.06,WSW,256,0.0,1.0,95,0.00,,,0.00,meteohub,2013-09-11 06:11:00,
2013-09-11 02:16:00,75.0,73.4,30.06,WSW,256,0.0,1.0,95,0.00,,,0.00,meteohub,2013-09-11 06:16:00,
2013-09-11 02:21:00,75.0,73.4,30.06,WSW,256,0.0,0.0,95,0.00,,,0.00,meteohub,2013-09-11 06:21:00,
2013-09-11 02:26:00,75.0,73.2,30.06,WSW,255,0.0,0.0,94,0.00,,,0.00,meteohub,2013-09-11 06:26:00,
2013-09-11 02:31:00,75.2,73.4,30.06,WSW,252,0.0,0.0,94,0.00,,,0.00,meteohub,2013-09-11 06:31:00,
2013-09-11 02:36:00,75.4,73.6,30.06,East,93,0.0,1.0,94,0.00,,,0.00,meteohub,2013-09-11 06:36:00,
2013-09-11 02:41:00,75.4,73.6,30.06,East,94,0.0,1.0,94,0.00,,,0.00,meteohub,2013-09-11 06:41:00,
2013-09-11 02:46:00,75.4,73.2,30.05,East,93,0.0,1.0,93,0.00,,,0.00,meteohub,2013-09-11 06:46:00,
2013-09-11 02:51:00,75.2,73.0,30.05,East,93,0.0,1.0,93,0.00,,,0.00,meteohub,2013-09-11 06:51:00,
2013-09-11 02:56:00,75.0,72.9,30.05,East,99,0.0,0.0,93,0.00,,,0.00,meteohub,2013-09-11 06:56:00,
2013-09-11 03:01:00,75.0,72.9,30.05,East,98,0.0,0.0,93,0.00,,,0.00,meteohub,2013-09-11 07:01:00,
2013-09-11 03:06:00,74.8,72.7,30.05,East,98,0.0,0.0,93,0.00,,,0.00,meteohub,2013-09-11 07:06:00,
2013-09-11 03:12:00,74.8,72.7,30.05,East,99,0.0,0.0,93,0.00,,,0.00,meteohub,2013-09-11 07:12:00,
2013-09-11 03:17:00,74.7,72.5,30.05,East,98,0.0,0.0,93,0.00,,,0.00,meteohub,2013-09-11 07:17:00,
2013-09-11 03:22:00,74.5,72.3,30.05,East,98,0.0,0.0,93,0.00,,,0.00,meteohub,2013-09-11 07:22:00,
2013-09-11 03:27:00,74.5,72.3,30.05,East,99,0.0,0.0,93,0.00,,,0.00,meteohub,2013-09-11 07:27:00,
2013-09-11 03:32:00,74.1,72.0,30.05,East,98,0.0,0.0,93,0.00,,,0.00,meteohub,2013-09-11 07:32:00,
2013-09-11 03:37:00,74.1,72.3,30.05,East,98,0.0,0.0,94,0.00,,,0.00,meteohub,2013-09-11 07:37:00,
2013-09-11 03:42:00,73.9,72.1,30.05,NNW,329,0.0,0.0,94,0.00,,,0.00,meteohub,2013-09-11 07:42:00,
2013-09-11 03:47:00,73.8,72.0,30.05,WNW,286,0.0,0.0,94,0.00,,,0.00,meteohub,2013-09-11 07:47:00,
2013-09-11 03:52:00,73.8,72.0,30.05,WNW,287,0.0,0.0,94,0.00,,,0.00,meteohub,2013-09-11 07:52:00,
2013-09-11 03:57:00,73.6,71.8,30.05,WNW,287,0.0,0.0,94,0.00,,,0.00,meteohub,2013-09-11 07:57:00,
2013-09-11 04:02:00,73.4,71.6,30.05,WNW,287,0.0,0.0,94,0.00,,,0.00,meteohub,2013-09-11 08:02:00,
2013-09-11 04:07:00,73.2,71.4,30.05,WNW,286,0.0,0.0,94,0.00,,,0.00,meteohub,2013-09-11 08:07:00,
2013-09-11 04:12:00,73.2,71.8,30.05,WNW,287,0.0,0.0,95,0.00,,,0.00,meteohub,2013-09-11 08:12:00,
2013-09-11 04:17:00,73.0,71.6,30.05,WNW,287,0.0,0.0,95,0.00,,,0.00,meteohub,2013-09-11 08:17:00,
2013-09-11 04:22:00,72.9,71.4,30.05,WNW,287,0.0,0.0,95,0.00,,,0.00,meteohub,2013-09-11 08:22:00,
2013-09-11 04:27:00,72.9,71.4,30.05,WNW,287,0.0,0.0,95,0.00,,,0.00,meteohub,2013-09-11 08:27:00,
2013-09-11 04:32:00,72.7,71.2,30.05,WNW,287,0.0,0.0,95,0.00,,,0.00,meteohub,2013-09-11 08:32:00,
2013-09-11 04:37:00,72.7,71.2,30.05,WNW,287,0.0,0.0,95,0.00,,,0.00,meteohub,2013-09-11 08:37:00,
2013-09-11 04:42:00,72.5,71.1,30.05,WNW,286,0.0,0.0,95,0.00,,,0.00,meteohub,2013-09-11 08:42:00,
2013-09-11 04:47:00,72.3,70.9,30.04,WNW,287,0.0,0.0,95,0.00,,,0.00,meteohub,2013-09-11 08:47:00,
2013-09-11 04:52:00,72.3,70.9,30.04,WNW,287,0.0,0.0,95,0.00,,,0.00,meteohub,2013-09-11 08:52:00,
2013-09-11 04:57:00,72.3,70.9,30.05,WNW,287,0.0,0.0,95,0.00,,,0.00,meteohub,2013-09-11 08:57:00,
2013-09-11 05:02:00,72.3,70.9,30.05,WNW,286,0.0,0.0,95,0.00,,,0.00,meteohub,2013-09-11 09:02:00,
2013-09-11 05:07:00,72.1,70.9,30.05,WNW,287,0.0,0.0,96,0.00,,,0.00,meteohub,2013-09-11 09:07:00,
2013-09-11 05:12:00,72.1,70.9,30.05,WNW,286,0.0,0.0,96,0.00,,,0.00,meteohub,2013-09-11 09:12:00,
2013-09-11 05:17:00,72.1,70.9,30.05,WNW,287,0.0,0.0,96,0.00,,,0.00,meteohub,2013-09-11 09:17:00,
2013-09-11 05:22:00,72.1,70.9,30.05,WNW,287,0.0,0.0,96,0.00,,,0.00,meteohub,2013-09-11 09:22:00,
2013-09-11 05:27:00,72.0,70.7,30.05,WNW,287,0.0,0.0,96,0.00,,,0.00,meteohub,2013-09-11 09:27:00,
2013-09-11 05:32:00,72.0,70.7,30.05,WNW,288,0.0,0.0,96,0.00,,,0.00,meteohub,2013-09-11 09:32:00,
2013-09-11 05:37:00,72.0,70.7,30.05,WNW,286,0.0,0.0,96,0.00,,,0.00,meteohub,2013-09-11 09:37:00,
2013-09-11 05:42:00,71.8,70.5,30.06,WNW,288,0.0,0.0,96,0.00,,,0.00,meteohub,2013-09-11 09:42:00,
2013-09-11 05:47:00,71.8,70.5,30.06,WNW,287,0.0,0.0,96,0.00,,,0.00,meteohub,2013-09-11 09:47:00,
2013-09-11 05:52:00,71.8,70.5,30.06,WNW,288,0.0,0.0,96,0.00,,,0.00,meteohub,2013-09-11 09:52:00,
2013-09-11 05:57:00,71.6,70.3,30.06,WNW,287,0.0,0.0,96,0.00,,,0.00,meteohub,2013-09-11 09:57:00,
2013-09-11 06:02:00,71.4,70.2,30.06,WNW,287,0.0,0.0,96,0.00,,,0.00,meteohub,2013-09-11 10:02:00,
2013-09-11 06:07:00,71.4,70.2,30.06,WNW,287,0.0,0.0,96,0.00,,,0.00,meteohub,2013-09-11 10:07:00,
2013-09-11 06:12:00,71.4,70.2,30.06,WNW,288,0.0,0.0,96,0.00,,,0.00,meteohub,2013-09-11 10:12:00,
2013-09-11 06:17:00,71.4,70.2,30.06,WNW,286,0.0,0.0,96,0.00,,,0.00,meteohub,2013-09-11 10:17:00,
2013-09-11 06:22:00,71.4,70.2,30.06,WNW,287,0.0,0.0,96,0.00,,,0.00,meteohub,2013-09-11 10:22:00,
2013-09-11 06:27:00,71.4,70.2,30.07,WNW,288,0.0,0.0,96,0.00,,,0.00,meteohub,2013-09-11 10:27:00,
2013-09-11 06:32:00,71.4,70.5,30.07,WNW,286,0.0,0.0,97,0.00,,,0.00,meteohub,2013-09-11 10:32:00,
2013-09-11 06:37:00,71.4,70.5,30.07,WNW,288,0.0,0.0,97,0.00,,,0.00,meteohub,2013-09-11 10:37:00,
2013-09-11 06:42:00,71.4,70.5,30.08,WNW,286,0.0,0.0,97,0.00,,,0.00,meteohub,2013-09-11 10:42:00,
2013-09-11 06:47:00,71.4,70.5,30.08,WNW,287,0.0,0.0,97,0.00,,,0.00,meteohub,2013-09-11 10:47:00,
2013-09-11 06:52:00,71.4,70.5,30.08,WNW,287,0.0,0.0,97,0.00,,,0.00,meteohub,2013-09-11 10:52:00,
2013-09-11 06:57:00,71.4,70.5,30.08,WNW,286,0.0,0.0,97,0.00,,,0.00,meteohub,2013-09-11 10:57:00,
2013-09-11 07:02:00,71.6,70.7,30.08,WNW,287,0.0,0.0,97,0.00,,,0.00,meteohub,2013-09-11 11:02:00,
2013-09-11 07:07:00,71.8,70.9,30.08,WNW,288,0.0,0.0,97,0.00,,,0.00,meteohub,2013-09-11 11:07:00,
2013-09-11 07:12:00,71.8,70.9,30.09,WNW,287,0.0,0.0,97,0.00,,,0.00,meteohub,2013-09-11 11:12:00,
2013-09-11 07:17:00,72.0,71.1,30.09,WNW,286,0.0,0.0,97,0.00,,,0.00,meteohub,2013-09-11 11:17:00,
2013-09-11 07:22:00,72.1,71.2,30.09,WNW,288,0.0,0.0,97,0.00,,,0.00,meteohub,2013-09-11 11:22:00,
2013-09-11 07:27:00,72.5,72.0,30.09,WNW,287,0.0,0.0,98,0.00,,,0.00,meteohub,2013-09-11 11:27:00,
2013-09-11 07:32:00,72.9,72.3,30.09,WNW,287,0.0,0.0,98,0.00,,,0.00,meteohub,2013-09-11 11:32:00,
2013-09-11 07:37:00,73.0,72.5,30.09,WNW,287,0.0,0.0,98,0.00,,,0.00,meteohub,2013-09-11 11:37:00,
2013-09-11 07:42:00,73.6,73.0,30.09,WNW,287,0.0,0.0,98,0.00,,,0.00,meteohub,2013-09-11 11:42:00,
2013-09-11 07:47:00,73.9,73.4,30.09,WNW,286,0.0,0.0,98,0.00,,,0.00,meteohub,2013-09-11 11:47:00,
2013-09-11 07:52:00,74.5,73.9,30.09,WNW,287,0.0,0.0,98,0.00,,,0.00,meteohub,2013-09-11 11:52:00,
2013-09-11 07:57:00,74.7,74.1,30.09,WNW,286,0.0,0.0,98,0.00,,,0.00,meteohub,2013-09-11 11:57:00,
2013-09-11 08:02:00,74.8,73.9,30.09,WNW,287,0.0,0.0,97,0.00,,,0.00,meteohub,2013-09-11 12:02:00,
2013-09-11 08:07:00,75.0,74.1,30.09,WNW,286,0.0,0.0,97,0.00,,,0.00,meteohub,2013-09-11 12:07:00,
2013-09-11 08:12:00,75.6,74.7,30.09,West,281,0.0,0.0,97,0.00,,,0.00,meteohub,2013-09-11 12:12:00,
2013-09-11 08:17:00,76.1,75.2,30.09,West,281,0.0,0.0,97,0.00,,,0.00,meteohub,2013-09-11 12:17:00,
2013-09-11 08:23:00,76.6,75.4,30.09,West,278,0.0,0.0,96,0.00,,,0.00,meteohub,2013-09-11 12:23:00,
2013-09-11 08:28:00,77.4,75.6,30.09,West,271,0.0,0.0,94,0.00,,,0.00,meteohub,2013-09-11 12:28:00,
2013-09-11 08:33:00,78.3,75.7,30.09,West,270,0.0,0.0,92,0.00,,,0.00,meteohub,2013-09-11 12:33:00,
2013-09-11 08:38:00,78.8,75.6,30.09,West,269,0.0,0.0,90,0.00,,,0.00,meteohub,2013-09-11 12:38:00,
2013-09-11 08:43:00,79.2,75.6,30.09,West,270,0.0,0.0,89,0.00,,,0.00,meteohub,2013-09-11 12:43:00,
2013-09-11 08:48:00,79.5,75.6,30.09,West,277,0.0,0.0,88,0.00,,,0.00,meteohub,2013-09-11 12:48:00,
2013-09-11 08:53:00,80.2,76.1,30.09,West,277,0.0,0.0,87,0.00,,,0.00,meteohub,2013-09-11 12:53:00,
2013-09-11 08:58:00,80.6,76.1,30.09,West,277,0.0,0.0,86,0.00,,,0.00,meteohub,2013-09-11 12:58:00,
2013-09-11 09:03:00,81.0,76.1,30.09,West,276,0.0,0.0,85,0.00,,,0.00,meteohub,2013-09-11 13:03:00,
2013-09-11 09:08:00,81.7,76.3,30.09,West,264,0.0,0.0,84,0.00,,,0.00,meteohub,2013-09-11 13:08:00,
2013-09-11 09:13:00,81.9,76.1,30.09,WNW,301,0.0,0.0,83,0.00,,,0.00,meteohub,2013-09-11 13:13:00,
2013-09-11 09:18:00,82.0,76.6,30.09,WNW,297,0.0,0.0,84,0.00,,,0.00,meteohub,2013-09-11 13:18:00,
2013-09-11 09:23:00,82.6,76.5,30.09,WNW,287,0.0,0.0,82,0.00,,,0.00,meteohub,2013-09-11 13:23:00,
2013-09-11 09:28:00,82.8,76.6,30.09,West,277,0.0,0.0,82,0.00,,,0.00,meteohub,2013-09-11 13:28:00,
2013-09-11 09:33:00,83.1,76.6,30.09,West,260,0.0,0.0,81,0.00,,,0.00,meteohub,2013-09-11 13:33:00,
2013-09-11 09:38:00,83.8,76.6,30.09,West,260,0.0,0.0,79,0.00,,,0.00,meteohub,2013-09-11 13:38:00,
2013-09-11 09:43:00,84.4,76.8,30.09,West,270,0.0,0.0,78,0.00,,,0.00,meteohub,2013-09-11 13:43:00,
2013-09-11 09:48:00,84.6,77.4,30.09,West,267,0.0,0.0,79,0.00,,,0.00,meteohub,2013-09-11 13:48:00,
2013-09-11 09:53:00,84.9,77.4,30.09,West,267,0.0,0.0,78,0.00,,,0.00,meteohub,2013-09-11 13:53:00,
2013-09-11 09:58:00,84.9,76.8,30.08,West,267,0.0,0.0,77,0.00,,,0.00,meteohub,2013-09-11 13:58:00,
2013-09-11 10:03:00,84.7,77.2,30.08,West,263,0.0,0.0,78,0.00,,,0.00,meteohub,2013-09-11 14:03:00,
2013-09-11 10:08:00,85.3,77.2,30.08,West,262,0.0,0.0,77,0.00,,,0.00,meteohub,2013-09-11 14:08:00,
2013-09-11 10:13:00,85.6,77.2,30.08,WSW,250,0.0,0.0,76,0.00,,,0.00,meteohub,2013-09-11 14:13:00,
2013-09-11 10:18:00,86.0,77.5,30.08,WSW,250,0.0,1.0,76,0.00,,,0.00,meteohub,2013-09-11 14:18:00,
2013-09-11 10:24:00,86.4,77.9,30.08,WSW,255,0.0,2.0,76,0.00,,,0.00,meteohub,2013-09-11 14:24:00,
2013-09-11 10:29:00,86.4,77.5,30.07,WSW,253,0.0,2.0,75,0.00,,,0.00,meteohub,2013-09-11 14:29:00,
2013-09-11 10:34:00,86.7,77.4,30.07,West,274,0.0,1.0,74,0.00,,,0.00,meteohub,2013-09-11 14:34:00,
2013-09-11 10:39:00,86.7,77.9,30.07,West,274,0.0,1.0,75,0.00,,,0.00,meteohub,2013-09-11 14:39:00,
2013-09-11 10:44:00,87.1,78.3,30.07,WSW,257,0.0,1.0,75,0.00,,,0.00,meteohub,2013-09-11 14:44:00,
2013-09-11 10:49:00,87.6,78.3,30.07,West,259,0.0,1.0,74,0.00,,,0.00,meteohub,2013-09-11 14:49:00,
2013-09-11 10:54:00,88.0,77.9,30.07,WSW,257,0.0,0.0,72,0.00,,,0.00,meteohub,2013-09-11 14:54:00,
2013-09-11 10:59:00,88.3,78.1,30.07,WSW,257,0.0,2.0,72,0.00,,,0.00,meteohub,2013-09-11 14:59:00,
2013-09-11 11:04:00,88.5,77.9,30.07,WSW,256,0.0,2.0,71,0.00,,,0.00,meteohub,2013-09-11 15:04:00,
2013-09-11 11:09:00,88.9,78.3,30.07,WSW,256,0.0,2.0,71,0.00,,,0.00,meteohub,2013-09-11 15:09:00,
2013-09-11 11:14:00,88.9,78.6,30.07,West,260,0.0,0.0,72,0.00,,,0.00,meteohub,2013-09-11 15:14:00,
2013-09-11 11:19:00,88.9,78.3,30.06,WSW,241,0.0,0.0,71,0.00,,,0.00,meteohub,2013-09-11 15:19:00,
2013-09-11 11:24:00,89.2,79.0,30.06,WSW,242,0.0,0.0,72,0.00,,,0.00,meteohub,2013-09-11 15:24:00,
2013-09-11 11:29:00,89.4,78.3,30.06,WSW,254,0.0,0.0,70,0.00,,,0.00,meteohub,2013-09-11 15:29:00,
2013-09-11 11:34:00,90.3,78.8,30.06,WSW,248,0.0,3.0,69,0.00,,,0.00,meteohub,2013-09-11 15:34:00,
2013-09-11 11:39:00,90.9,78.4,30.06,WSW,250,1.0,3.0,67,0.00,,,0.00,meteohub,2013-09-11 15:39:00,
2013-09-11 11:44:00,91.0,79.0,30.06,WSW,258,0.0,3.0,68,0.00,,,0.00,meteohub,2013-09-11 15:44:00,
2013-09-11 11:50:00,90.9,78.8,30.06,West,270,0.0,3.0,68,0.00,,,0.00,meteohub,2013-09-11 15:50:00,
2013-09-11 11:55:00,91.0,79.0,30.06,West,269,0.0,3.0,68,0.00,,,0.00,meteohub,2013-09-11 15:55:00,
2013-09-11 12:00:00,91.4,78.4,30.06,WSW,252,0.0,1.0,66,0.00,,,0.00,meteohub,2013-09-11 16:00:00,
2013-09-11 12:05:00,91.8,78.8,30.06,West,272,0.0,3.0,66,0.00,,,0.00,meteohub,2013-09-11 16:05:00,
2013-09-11 12:10:00,92.3,78.8,30.05,WSW,247,4.0,4.0,65,0.00,,,0.00,meteohub,2013-09-11 16:10:00,
2013-09-11 12:15:00,92.1,79.2,30.05,ENE,59,0.0,3.0,66,0.00,,,0.00,meteohub,2013-09-11 16:15:00,
2013-09-11 12:20:00,92.5,79.5,30.05,WSW,252,0.0,5.0,66,0.00,,,0.00,meteohub,2013-09-11 16:20:00,
2013-09-11 12:25:00,92.5,77.5,30.05,WSW,250,0.0,5.0,62,0.00,,,0.00,meteohub,2013-09-11 16:25:00,
2013-09-11 12:30:00,92.7,78.6,30.04,West,266,0.0,5.0,64,0.00,,,0.00,meteohub,2013-09-11 16:30:00,
2013-09-11 12:35:00,92.8,79.3,30.04,WSW,258,0.0,5.0,65,0.00,,,0.00,meteohub,2013-09-11 16:35:00,
2013-09-11 12:40:00,92.8,78.8,30.04,WSW,252,0.0,4.0,64,0.00,,,0.00,meteohub,2013-09-11 16:40:00,
2013-09-11 12:45:00,93.4,78.4,30.04,WSW,245,1.0,4.0,62,0.00,,,0.00,meteohub,2013-09-11 16:45:00,
2013-09-11 12:50:00,93.2,78.8,30.04,West,277,0.0,4.0,63,0.00,,,0.00,meteohub,2013-09-11 16:50:00,
2013-09-11 12:55:00,93.2,78.8,30.04,East,79,1.0,4.0,63,0.00,,,0.00,meteohub,2013-09-11 16:55:00,
2013-09-11 13:00:00,93.4,78.4,30.04,WSW,255,0.0,4.0,62,0.00,,,0.00,meteohub,2013-09-11 17:00:00,
2013-09-11 13:05:00,93.6,78.6,30.04,ENE,59,1.0,7.0,62,0.00,,,0.00,meteohub,2013-09-11 17:05:00,
2013-09-11 13:10:00,93.2,78.3,30.03,SSE,167,0.0,7.0,62,0.00,,,0.00,meteohub,2013-09-11 17:10:00,
2013-09-11 13:15:00,93.0,78.1,30.03,WSW,246,5.0,7.0,62,0.00,,,0.00,meteohub,2013-09-11 17:15:00,
2013-09-11 13:20:00,93.0,78.6,30.03,WSW,245,3.0,6.0,63,0.00,,,0.00,meteohub,2013-09-11 17:20:00,
2013-09-11 13:25:00,93.4,78.8,30.03,WNW,287,0.0,6.0,63,0.00,,,0.00,meteohub,2013-09-11 17:25:00,
2013-09-11 13:30:00,93.7,79.2,30.02,WSW,240,2.0,5.0,63,0.00,,,0.00,meteohub,2013-09-11 17:30:00,
2013-09-11 13:35:00,93.6,78.6,30.02,West,259,6.0,6.0,62,0.00,,,0.00,meteohub,2013-09-11 17:35:00,
2013-09-11 13:40:00,93.2,78.3,30.02,ENE,74,3.0,7.0,62,0.00,,,0.00,meteohub,2013-09-11 17:40:00,
2013-09-11 13:45:00,92.8,77.9,30.02,East,79,0.0,7.0,62,0.00,,,0.00,meteohub,2013-09-11 17:45:00,
2013-09-11 13:50:00,93.2,78.3,30.02,ESE,105,0.0,7.0,62,0.00,,,0.00,meteohub,2013-09-11 17:50:00,
2013-09-11 13:55:00,93.4,78.8,30.02,North,358,1.0,8.0,63,0.00,,,0.00,meteohub,2013-09-11 17:55:00,
2013-09-11 14:00:00,93.4,78.4,30.01,WSW,256,3.0,8.0,62,0.00,,,0.00,meteohub,2013-09-11 18:00:00,
2013-09-11 14:06:00,93.0,78.1,30.01,West,270,3.0,10.0,62,0.00,,,0.00,meteohub,2013-09-11 18:06:00,
2013-09-11 14:11:00,93.0,78.6,30.01,SW,224,1.0,10.0,63,0.00,,,0.00,meteohub,2013-09-11 18:11:00,
2013-09-11 14:16:00,93.2,78.8,30.00,West,277,0.0,10.0,63,0.00,,,0.00,meteohub,2013-09-11 18:16:00,
2013-09-11 14:21:00,93.7,79.2,30.00,East,101,0.0,9.0,63,0.00,,,0.00,meteohub,2013-09-11 18:21:00,
2013-09-11 14:26:00,93.9,79.0,30.00,WSW,245,2.0,9.0,62,0.00,,,0.00,meteohub,2013-09-11 18:26:00,
2013-09-11 14:31:00,93.7,78.8,30.00,West,264,0.0,9.0,62,0.00,,,0.00,meteohub,2013-09-11 18:31:00,
2013-09-11 14:36:00,93.6,78.1,30.00,West,261,2.0,9.0,61,0.00,,,0.00,meteohub,2013-09-11 18:36:00,
2013-09-11 14:41:00,93.7,78.8,30.00,WSW,242,4.0,8.0,62,0.00,,,0.00,meteohub,2013-09-11 18:41:00,
2013-09-11 14:46:00,93.9,78.4,30.00,WSW,250,0.0,8.0,61,0.00,,,0.00,meteohub,2013-09-11 18:46:00,
2013-09-11 14:51:00,93.7,78.3,29.99,WSW,248,4.0,11.0,61,0.00,,,0.00,meteohub,2013-09-11 18:51:00,
2013-09-11 14:56:00,93.6,79.0,29.99,West,271,0.0,11.0,63,0.00,,,0.00,meteohub,2013-09-11 18:56:00,
2013-09-11 15:01:00,93.2,78.8,29.99,ENE,78,1.0,8.0,63,0.00,,,0.00,meteohub,2013-09-11 19:01:00,
2013-09-11 15:06:00,93.0,78.6,29.99,SE,135,0.0,8.0,63,0.00,,,0.00,meteohub,2013-09-11 19:06:00,
2013-09-11 15:11:00,93.4,78.8,29.99,SW,228,1.0,7.0,63,0.00,,,0.00,meteohub,2013-09-11 19:11:00,
2013-09-11 15:16:00,92.8,77.9,29.99,SW,230,1.0,7.0,62,0.00,,,0.00,meteohub,2013-09-11 19:16:00,
2013-09-11 15:22:00,92.3,77.9,29.99,SSE,155,2.0,8.0,63,0.00,,,0.00,meteohub,2013-09-11 19:22:00,
2013-09-11 15:27:00,92.1,78.6,29.99,SW,233,0.0,8.0,65,0.00,,,0.00,meteohub,2013-09-11 19:27:00,
2013-09-11 15:32:00,92.3,78.3,29.99,West,265,2.0,8.0,64,0.00,,,0.00,meteohub,2013-09-11 19:32:00,
2013-09-11 15:37:00,92.1,78.6,29.98,SW,224,1.0,8.0,65,0.00,,,0.00,meteohub,2013-09-11 19:37:00,
2013-09-11 15:42:00,92.1,78.3,29.98,SW,228,1.0,7.0,64,0.00,,,0.00,meteohub,2013-09-11 19:42:00,
2013-09-11 15:47:00,91.8,77.9,29.98,West,281,0.0,7.0,64,0.00,,,0.00,meteohub,2013-09-11 19:47:00,
2013-09-11 15:52:00,91.2,77.7,29.98,SW,214,1.0,9.0,65,0.00,,,0.00,meteohub,2013-09-11 19:52:00,
2013-09-11 15:57:00,91.2,77.7,29.98,WSW,249,1.0,9.0,65,0.00,,,0.00,meteohub,2013-09-11 19:57:00,
2013-09-11 16:02:00,91.0,76.6,29.98,SW,225,0.0,9.0,63,0.00,,,0.00,meteohub,2013-09-11 20:02:00,
2013-09-11 16:07:00,90.9,77.5,29.98,WNW,285,1.0,8.0,65,0.00,,,0.00,meteohub,2013-09-11 20:07:00,
2013-09-11 16:12:00,90.5,76.1,29.98,West,271,2.0,7.0,63,0.00,,,0.00,meteohub,2013-09-11 20:12:00,
2013-09-11 16:17:00,90.1,76.3,29.98,SSW,201,1.0,7.0,64,0.00,,,0.00,meteohub,2013-09-11 20:17:00,
2013-09-11 16:22:00,89.8,75.9,29.97,WSW,241,0.0,5.0,64,0.00,,,0.00,meteohub,2013-09-11 20:22:00,
2013-09-11 16:27:00,89.4,75.6,29.97,West,264,1.0,5.0,64,0.00,,,0.00,meteohub,2013-09-11 20:27:00,
2013-09-11 16:32:00,88.9,75.2,29.97,WSW,253,1.0,5.0,64,0.00,,,0.00,meteohub,2013-09-11 20:32:00,
2013-09-11 16:37:00,88.3,75.0,29.97,WSW,245,1.0,8.0,65,0.00,,,0.00,meteohub,2013-09-11 20:37:00,
2013-09-11 16:42:00,88.2,74.8,29.97,WSW,255,2.0,8.0,65,0.00,,,0.00,meteohub,2013-09-11 20:42:00,
2013-09-11 16:47:00,88.0,74.7,29.97,WSW,240,0.0,8.0,65,0.00,,,0.00,meteohub,2013-09-11 20:47:00,
2013-09-11 16:52:00,87.8,75.0,29.97,WSW,248,3.0,9.0,66,0.00,,,0.00,meteohub,2013-09-11 20:52:00,
2013-09-11 16:57:00,87.6,74.8,29.97,SW,233,4.0,9.0,66,0.00,,,0.00,meteohub,2013-09-11 20:57:00,
2013-09-11 17:02:00,87.4,74.7,29.96,SW,236,2.0,9.0,66,0.00,,,0.00,meteohub,2013-09-11 21:02:00,
2013-09-11 17:07:00,87.4,74.7,29.96,SW,228,0.0,8.0,66,0.00,,,0.00,meteohub,2013-09-11 21:07:00,
2013-09-11 17:12:00,87.4,75.2,29.96,WSW,252,1.0,8.0,67,0.00,,,0.00,meteohub,2013-09-11 21:12:00,
2013-09-11 17:17:00,87.4,74.7,29.96,ENE,74,0.0,6.0,66,0.00,,,0.00,meteohub,2013-09-11 21:17:00,
2013-09-11 17:22:00,87.3,75.0,29.96,WSW,247,2.0,3.0,67,0.00,,,0.00,meteohub,2013-09-11 21:22:00,
2013-09-11 17:27:00,87.1,74.3,29.96,WSW,257,4.0,9.0,66,0.00,,,0.00,meteohub,2013-09-11 21:27:00,
2013-09-11 17:32:00,87.1,74.3,29.96,WSW,252,1.0,9.0,66,0.00,,,0.00,meteohub,2013-09-11 21:32:00,
2013-09-11 17:37:00,87.1,74.8,29.96,WSW,256,2.0,9.0,67,0.00,,,0.00,meteohub,2013-09-11 21:37:00,
2013-09-11 17:42:00,86.7,73.9,29.96,WSW,242,1.0,4.0,66,0.00,,,0.00,meteohub,2013-09-11 21:42:00,
2013-09-11 17:47:00,86.4,74.1,29.96,WSW,252,0.0,9.0,67,0.00,,,0.00,meteohub,2013-09-11 21:47:00,
2013-09-11 17:52:00,86.2,73.9,29.96,WSW,248,5.0,9.0,67,0.00,,,0.00,meteohub,2013-09-11 21:52:00,
2013-09-11 17:57:00,86.0,74.1,29.96,SW,215,0.0,9.0,68,0.00,,,0.00,meteohub,2013-09-11 21:57:00,
2013-09-11 18:02:00,85.8,73.9,29.96,WSW,255,5.0,6.0,68,0.00,,,0.00,meteohub,2013-09-11 22:02:00,
2013-09-11 18:07:00,85.5,73.8,29.97,WSW,255,3.0,8.0,68,0.00,,,0.00,meteohub,2013-09-11 22:07:00,
2013-09-11 18:12:00,85.3,73.9,29.97,WSW,251,1.0,10.0,69,0.00,,,0.00,meteohub,2013-09-11 22:12:00,
2013-09-11 18:17:00,84.9,73.6,29.97,West,277,0.0,10.0,69,0.00,,,0.00,meteohub,2013-09-11 22:17:00,
2013-09-11 18:22:00,84.7,73.9,29.97,SW,228,0.0,10.0,70,0.00,,,0.00,meteohub,2013-09-11 22:22:00,
2013-09-11 18:27:00,84.7,73.9,29.98,WSW,250,1.0,7.0,70,0.00,,,0.00,meteohub,2013-09-11 22:27:00,
2013-09-11 18:32:00,84.6,73.8,29.98,West,267,0.0,6.0,70,0.00,,,0.00,meteohub,2013-09-11 22:32:00,
2013-09-11 18:37:00,84.4,73.6,29.98,WSW,239,2.0,4.0,70,0.00,,,0.00,meteohub,2013-09-11 22:37:00,
2013-09-11 18:42:00,83.8,73.4,29.98,ENE,63,0.0,4.0,71,0.00,,,0.00,meteohub,2013-09-11 22:42:00,
2013-09-11 18:47:00,83.7,73.6,29.98,WSW,248,0.0,4.0,72,0.00,,,0.00,meteohub,2013-09-11 22:47:00,
2013-09-11 18:52:00,83.1,73.2,29.98,WSW,239,0.0,6.0,72,0.00,,,0.00,meteohub,2013-09-11 22:52:00,
2013-09-11 18:57:00,82.9,73.4,29.98,WSW,250,2.0,6.0,73,0.00,,,0.00,meteohub,2013-09-11 22:57:00,
2013-09-11 19:02:00,82.8,73.2,29.98,WSW,242,0.0,6.0,73,0.00,,,0.00,meteohub,2013-09-11 23:02:00,
2013-09-11 19:07:00,82.6,73.4,29.98,WSW,258,0.0,6.0,74,0.00,,,0.00,meteohub,2013-09-11 23:07:00,
2013-09-11 19:12:00,82.6,73.4,29.98,WSW,255,1.0,4.0,74,0.00,,,0.00,meteohub,2013-09-11 23:12:00,
2013-09-11 19:17:00,82.6,73.4,29.99,West,260,1.0,3.0,74,0.00,,,0.00,meteohub,2013-09-11 23:17:00,
2013-09-11 19:22:00,82.6,73.4,29.99,West,262,0.0,6.0,74,0.00,,,0.00,meteohub,2013-09-11 23:22:00,
2013-09-11 19:27:00,82.6,73.8,29.99,West,281,0.0,6.0,75,0.00,,,0.00,meteohub,2013-09-11 23:27:00,
2013-09-11 19:32:00,82.6,73.8,29.99,WSW,252,0.0,6.0,75,0.00,,,0.00,meteohub,2013-09-11 23:32:00,
2013-09-11 19:37:00,82.4,73.8,29.99,WSW,252,0.0,5.0,75,0.00,,,0.00,meteohub,2013-09-11 23:37:00,
2013-09-11 19:42:00,82.2,73.6,29.99,WSW,253,1.0,3.0,75,0.00,,,0.00,meteohub,2013-09-11 23:42:00,
2013-09-11 19:47:00,82.0,73.8,29.99,WSW,253,0.0,1.0,76,0.00,,,0.00,meteohub,2013-09-11 23:47:00,
2013-09-11 19:52:00,81.9,73.6,29.99,WSW,253,0.0,1.0,76,0.00,,,0.00,meteohub,2013-09-11 23:52:00,
2013-09-11 19:57:00,81.7,73.8,29.99,WSW,255,0.0,1.0,77,0.00,,,0.00,meteohub,2013-09-11 23:57:00,
2013-09-11 20:02:00,81.7,73.8,29.99,West,273,0.0,1.0,77,0.00,,,0.00,meteohub,2013-09-12 00:02:00,
2013-09-11 20:07:00,81.3,73.4,29.99,West,273,0.0,1.0,77,0.00,,,0.00,meteohub,2013-09-12 00:07:00,
2013-09-11 20:12:00,81.1,73.6,29.99,West,273,0.0,1.0,78,0.00,,,0.00,meteohub,2013-09-12 00:12:00,
2013-09-11 20:17:00,81.0,73.4,29.99,West,273,0.0,0.0,78,0.00,,,0.00,meteohub,2013-09-12 00:17:00,
2013-09-11 20:22:00,80.8,73.6,29.99,West,273,0.0,0.0,79,0.00,,,0.00,meteohub,2013-09-12 00:22:00,
2013-09-11 20:27:00,80.4,73.2,29.99,West,273,0.0,0.0,79,0.00,,,0.00,meteohub,2013-09-12 00:27:00,
2013-09-11 20:32:00,80.4,73.8,29.99,West,273,0.0,0.0,80,0.00,,,0.00,meteohub,2013-09-12 00:32:00,
2013-09-11 20:37:00,80.2,73.6,29.99,West,273,0.0,0.0,80,0.00,,,0.00,meteohub,2013-09-12 00:37:00,
2013-09-11 20:42:00,80.1,73.8,29.99,West,273,0.0,0.0,81,0.00,,,0.00,meteohub,2013-09-12 00:42:00,
2013-09-11 20:47:00,79.9,73.6,29.99,West,273,0.0,0.0,81,0.00,,,0.00,meteohub,2013-09-12 00:47:00,
2013-09-11 20:52:00,79.9,73.6,29.99,West,273,0.0,0.0,81,0.00,,,0.00,meteohub,2013-09-12 00:52:00,
2013-09-11 20:57:00,79.9,73.6,29.99,West,273,0.0,0.0,81,0.00,,,0.00,meteohub,2013-09-12 00:57:00,
2013-09-11 21:02:00,79.5,73.6,29.99,West,273,0.0,0.0,82,0.00,,,0.00,meteohub,2013-09-12 01:02:00,
2013-09-11 21:07:00,79.3,73.4,29.99,West,273,0.0,0.0,82,0.00,,,0.00,meteohub,2013-09-12 01:07:00,
2013-09-11 21:12:00,79.2,73.6,29.99,West,273,0.0,0.0,83,0.00,,,0.00,meteohub,2013-09-12 01:12:00,
2013-09-11 21:17:00,79.0,73.4,29.99,West,273,0.0,0.0,83,0.00,,,0.00,meteohub,2013-09-12 01:17:00,
2013-09-11 21:22:00,78.6,73.0,29.99,West,273,0.0,0.0,83,0.00,,,0.00,meteohub,2013-09-12 01:22:00,
2013-09-11 21:27:00,78.4,73.2,29.99,West,273,0.0,0.0,84,0.00,,,0.00,meteohub,2013-09-12 01:27:00,
2013-09-11 21:32:00,78.4,73.6,29.99,West,273,0.0,0.0,85,0.00,,,0.00,meteohub,2013-09-12 01:32:00,
2013-09-11 21:37:00,78.3,73.4,29.99,West,273,0.0,0.0,85,0.00,,,0.00,meteohub,2013-09-12 01:37:00,
2013-09-11 21:42:00,78.1,73.2,29.99,West,273,0.0,0.0,85,0.00,,,0.00,meteohub,2013-09-12 01:42:00,
2013-09-11 21:47:00,77.9,73.0,29.99,West,273,0.0,0.0,85,0.00,,,0.00,meteohub,2013-09-12 01:47:00,
2013-09-11 21:52:00,77.7,73.2,29.99,West,273,0.0,0.0,86,0.00,,,0.00,meteohub,2013-09-12 01:52:00,
2013-09-11 21:57:00,77.5,73.0,29.99,West,273,0.0,0.0,86,0.00,,,0.00,meteohub,2013-09-12 01:57:00,
2013-09-11 22:02:00,77.5,73.4,30.00,West,273,0.0,0.0,87,0.00,,,0.00,meteohub,2013-09-12 02:02:00,
2013-09-11 22:07:00,77.5,73.4,29.99,West,273,0.0,0.0,87,0.00,,,0.00,meteohub,2013-09-12 02:07:00,
2013-09-11 22:12:00,77.5,73.4,30.00,West,273,0.0,0.0,87,0.00,,,0.00,meteohub,2013-09-12 02:12:00,
2013-09-11 22:17:00,77.5,73.4,30.00,West,273,0.0,0.0,87,0.00,,,0.00,meteohub,2013-09-12 02:17:00,
2013-09-11 22:22:00,77.4,73.2,30.00,West,273,0.0,0.0,87,0.00,,,0.00,meteohub,2013-09-12 02:22:00,
2013-09-11 22:27:00,77.4,73.6,29.99,West,273,0.0,0.0,88,0.00,,,0.00,meteohub,2013-09-12 02:27:00,
2013-09-11 22:32:00,77.4,73.6,29.99,West,273,0.0,0.0,88,0.00,,,0.00,meteohub,2013-09-12 02:32:00,
2013-09-11 22:37:00,77.2,73.4,29.99,West,273,0.0,0.0,88,0.00,,,0.00,meteohub,2013-09-12 02:37:00,
2013-09-11 22:42:00,77.2,73.4,29.99,West,273,0.0,0.0,88,0.00,,,0.00,meteohub,2013-09-12 02:42:00,
2013-09-11 22:47:00,77.2,73.4,29.99,West,273,0.0,0.0,88,0.00,,,0.00,meteohub,2013-09-12 02:47:00,
2013-09-11 22:52:00,77.0,73.2,29.99,West,273,0.0,0.0,88,0.00,,,0.00,meteohub,2013-09-12 02:52:00,
2013-09-11 22:57:00,77.0,73.2,29.99,West,273,0.0,0.0,88,0.00,,,0.00,meteohub,2013-09-12 02:57:00,
2013-09-11 23:02:00,77.0,73.6,29.99,West,273,0.0,0.0,89,0.00,,,0.00,meteohub,2013-09-12 03:02:00,
2013-09-11 23:07:00,77.2,73.8,29.99,West,273,0.0,0.0,89,0.00,,,0.00,meteohub,2013-09-12 03:07:00,
2013-09-11 23:12:00,77.2,73.8,29.99,West,273,0.0,0.0,89,0.00,,,0.00,meteohub,2013-09-12 03:12:00,
2013-09-11 23:17:00,77.0,73.6,29.98,West,273,0.0,0.0,89,0.00,,,0.00,meteohub,2013-09-12 03:17:00,
2013-09-11 23:22:00,77.0,73.6,29.98,West,273,0.0,0.0,89,0.00,,,0.00,meteohub,2013-09-12 03:22:00,
2013-09-11 23:27:00,76.8,73.4,29.98,West,273,0.0,0.0,89,0.00,,,0.00,meteohub,2013-09-12 03:27:00,
2013-09-11 23:32:00,76.8,73.4,29.98,West,273,0.0,0.0,89,0.00,,,0.00,meteohub,2013-09-12 03:32:00,
2013-09-11 23:37:00,76.6,73.2,29.98,West,273,0.0,0.0,89,0.00,,,0.00,meteohub,2013-09-12 03:37:00,
2013-09-11 23:42:00,76.6,73.2,29.98,West,273,0.0,0.0,89,0.00,,,0.00,meteohub,2013-09-12 03:42:00,
2013-09-11 23:47:00,76.5,73.0,29.97,West,273,0.0,0.0,89,0.00,,,0.00,meteohub,2013-09-12 03:47:00,
2013-09-11 23:52:00,76.3,73.0,29.97,West,273,0.0,0.0,90,0.00,,,0.00,meteohub,2013-09-12 03:52:00,
2013-09-11 23:57:00,76.3,73.0,29.97,West,273,0.0,0.0,90,0.00,,,0.00,meteohub,2013-09-12 03:57:00,